sensor_id;sensor_type;location;lat;lon;timestamp;pressure;altitude;pressure_sealevel;temperature;humidity
57442;BME280;43284;47.042;15.498;2023-02-12T00:01:30;98609.06;;;-1.21;73.68
57442;BME280;43284;47.042;15.498;2023-02-12T00:03:56;98617.84;;;-1.10;73.40
57442;BME280;43284;47.042;15.498;2023-02-12T00:06:22;98618.69;;;-1.11;73.39
57442;BME280;43284;47.042;15.498;2023-02-12T00:08:50;98610.09;;;-1.12;73.24
57442;BME280;43284;47.042;15.498;2023-02-12T00:11:18;98613.75;;;-1.02;73.28
57442;BME280;43284;47.042;15.498;2023-02-12T00:13:44;98612.00;;;-1.03;73.35
57442;BME280;43284;47.042;15.498;2023-02-12T00:16:13;98612.91;;;-1.02;73.19
57442;BME280;43284;47.042;15.498;2023-02-12T00:18:39;98612.97;;;-0.98;74.65
57442;BME280;43284;47.042;15.498;2023-02-12T00:21:05;98624.19;;;-0.93;74.65
57442;BME280;43284;47.042;15.498;2023-02-12T00:23:33;98613.88;;;-0.96;75.51
57442;BME280;43284;47.042;15.498;2023-02-12T00:25:59;98612.09;;;-1.00;75.04
57442;BME280;43284;47.042;15.498;2023-02-12T00:28:25;98614.47;;;-1.08;75.68
57442;BME280;43284;47.042;15.498;2023-02-12T00:30:51;98616.19;;;-1.08;75.76
57442;BME280;43284;47.042;15.498;2023-02-12T00:33:16;98623.81;;;-1.11;75.65
57442;BME280;43284;47.042;15.498;2023-02-12T00:35:44;98618.47;;;-1.20;75.69
57442;BME280;43284;47.042;15.498;2023-02-12T00:38:19;98610.78;;;-1.20;75.67
57442;BME280;43284;47.042;15.498;2023-02-12T00:40:44;98624.50;;;-1.18;75.49
57442;BME280;43284;47.042;15.498;2023-02-12T00:43:10;98627.91;;;-1.19;75.45
57442;BME280;43284;47.042;15.498;2023-02-12T00:45:36;98628.63;;;-1.25;74.72
57442;BME280;43284;47.042;15.498;2023-02-12T00:48:03;98632.88;;;-1.27;75.35
57442;BME280;43284;47.042;15.498;2023-02-12T00:50:28;98634.63;;;-1.26;75.32
57442;BME280;43284;47.042;15.498;2023-02-12T00:52:54;98640.56;;;-1.27;75.49
57442;BME280;43284;47.042;15.498;2023-02-12T00:55:20;98638.00;;;-1.27;74.92
57442;BME280;43284;47.042;15.498;2023-02-12T00:57:46;98636.44;;;-1.20;75.02
57442;BME280;43284;47.042;15.498;2023-02-12T01:00:13;98641.56;;;-1.22;74.23
57442;BME280;43284;47.042;15.498;2023-02-12T01:02:39;98643.22;;;-1.22;73.92
57442;BME280;43284;47.042;15.498;2023-02-12T01:05:05;98638.09;;;-1.22;73.98
57442;BME280;43284;47.042;15.498;2023-02-12T01:07:30;98644.97;;;-1.21;73.52
57442;BME280;43284;47.042;15.498;2023-02-12T01:09:56;98659.00;;;-1.06;75.55
57442;BME280;43284;47.042;15.498;2023-02-12T01:12:22;98640.75;;;-1.19;75.56
57442;BME280;43284;47.042;15.498;2023-02-12T01:14:47;98635.44;;;-1.27;75.87
57442;BME280;43284;47.042;15.498;2023-02-12T01:17:13;98642.22;;;-1.29;75.53
57442;BME280;43284;47.042;15.498;2023-02-12T01:19:39;98641.28;;;-1.34;75.72
57442;BME280;43284;47.042;15.498;2023-02-12T01:22:05;98648.91;;;-1.36;75.30
57442;BME280;43284;47.042;15.498;2023-02-12T01:24:31;98647.97;;;-1.41;75.18
57442;BME280;43284;47.042;15.498;2023-02-12T01:26:56;98659.13;;;-1.39;74.20
57442;BME280;43284;47.042;15.498;2023-02-12T01:29:22;98645.34;;;-1.42;73.67
57442;BME280;43284;47.042;15.498;2023-02-12T01:31:47;98651.13;;;-1.53;73.93
57442;BME280;43284;47.042;15.498;2023-02-12T01:34:13;98650.38;;;-1.47;73.94
57442;BME280;43284;47.042;15.498;2023-02-12T01:36:39;98640.88;;;-1.53;73.76
57442;BME280;43284;47.042;15.498;2023-02-12T01:39:05;98654.34;;;-1.60;73.73
57442;BME280;43284;47.042;15.498;2023-02-12T01:41:34;98644.03;;;-1.63;73.78
57442;BME280;43284;47.042;15.498;2023-02-12T01:44:10;98652.53;;;-1.66;73.68
57442;BME280;43284;47.042;15.498;2023-02-12T01:46:37;98645.63;;;-1.68;73.64
57442;BME280;43284;47.042;15.498;2023-02-12T01:49:05;98649.00;;;-1.69;74.13
57442;BME280;43284;47.042;15.498;2023-02-12T01:51:32;98636.03;;;-1.77;74.53
57442;BME280;43284;47.042;15.498;2023-02-12T01:54:01;98631.84;;;-1.72;74.22
57442;BME280;43284;47.042;15.498;2023-02-12T01:56:29;98631.06;;;-1.69;73.33
57442;BME280;43284;47.042;15.498;2023-02-12T01:58:55;98623.16;;;-1.78;73.34
57442;BME280;43284;47.042;15.498;2023-02-12T02:01:25;98622.22;;;-1.82;73.39
57442;BME280;43284;47.042;15.498;2023-02-12T02:03:54;98632.44;;;-1.83;73.63
57442;BME280;43284;47.042;15.498;2023-02-12T02:06:25;98623.06;;;-1.83;73.58
57442;BME280;43284;47.042;15.498;2023-02-12T02:08:53;98634.22;;;-1.81;73.37
57442;BME280;43284;47.042;15.498;2023-02-12T02:11:19;98637.44;;;-1.88;75.64
57442;BME280;43284;47.042;15.498;2023-02-12T02:14:03;98652.59;;;-1.97;75.97
57442;BME280;43284;47.042;15.498;2023-02-12T02:17:05;98643.09;;;-2.01;75.47
57442;BME280;43284;47.042;15.498;2023-02-12T02:33:36;98647.25;;;-2.07;75.25
57442;BME280;43284;47.042;15.498;2023-02-12T02:39:14;98656.72;;;-2.02;74.02
57442;BME280;43284;47.042;15.498;2023-02-12T02:41:48;98660.09;;;-2.03;74.47
57442;BME280;43284;47.042;15.498;2023-02-12T02:44:22;98651.63;;;-2.02;74.36
57442;BME280;43284;47.042;15.498;2023-02-12T02:46:51;98652.41;;;-2.03;74.66
57442;BME280;43284;47.042;15.498;2023-02-12T02:49:36;98651.50;;;-2.07;74.82
57442;BME280;43284;47.042;15.498;2023-02-12T02:52:08;98652.47;;;-2.02;73.99
57442;BME280;43284;47.042;15.498;2023-02-12T02:54:45;98650.69;;;-2.04;74.09
57442;BME280;43284;47.042;15.498;2023-02-12T02:57:16;98649.06;;;-2.02;74.64
57442;BME280;43284;47.042;15.498;2023-02-12T02:59:49;98654.88;;;-2.08;75.27
57442;BME280;43284;47.042;15.498;2023-02-12T03:02:32;98666.78;;;-2.10;75.31
57442;BME280;43284;47.042;15.498;2023-02-12T03:05:23;98664.06;;;-2.16;75.56
57442;BME280;43284;47.042;15.498;2023-02-12T03:08:04;98660.63;;;-2.17;76.51
57442;BME280;43284;47.042;15.498;2023-02-12T03:10:36;98651.28;;;-2.15;76.96
57442;BME280;43284;47.042;15.498;2023-02-12T03:13:11;98647.94;;;-2.12;76.37
57442;BME280;43284;47.042;15.498;2023-02-12T03:15:47;98659.97;;;-2.10;76.36
57442;BME280;43284;47.042;15.498;2023-02-12T03:18:22;98661.63;;;-2.12;76.22
57442;BME280;43284;47.042;15.498;2023-02-12T03:20:54;98657.41;;;-2.10;75.90
57442;BME280;43284;47.042;15.498;2023-02-12T03:23:25;98668.59;;;-2.06;76.63
57442;BME280;43284;47.042;15.498;2023-02-12T03:26:00;98664.41;;;-2.02;76.95
57442;BME280;43284;47.042;15.498;2023-02-12T03:28:34;98666.88;;;-2.07;76.94
57442;BME280;43284;47.042;15.498;2023-02-12T03:31:41;98660.00;;;-2.08;76.86
57442;BME280;43284;47.042;15.498;2023-02-12T03:34:29;98661.75;;;-2.07;76.77
57442;BME280;43284;47.042;15.498;2023-02-12T03:37:06;98671.03;;;-2.11;77.10
57442;BME280;43284;47.042;15.498;2023-02-12T03:42:30;98684.75;;;-2.09;76.76
57442;BME280;43284;47.042;15.498;2023-02-12T03:47:47;98682.13;;;-2.12;76.67
57442;BME280;43284;47.042;15.498;2023-02-12T03:50:23;98682.03;;;-2.15;76.47
57442;BME280;43284;47.042;15.498;2023-02-12T03:52:50;98690.56;;;-2.16;76.84
57442;BME280;43284;47.042;15.498;2023-02-12T03:55:16;98694.75;;;-2.18;77.12
57442;BME280;43284;47.042;15.498;2023-02-12T03:57:47;98699.03;;;-2.18;76.79
57442;BME280;43284;47.042;15.498;2023-02-12T04:00:21;98697.22;;;-2.21;76.71
57442;BME280;43284;47.042;15.498;2023-02-12T04:02:48;98696.38;;;-2.21;76.49
57442;BME280;43284;47.042;15.498;2023-02-12T04:05:23;98697.16;;;-2.24;76.20
57442;BME280;43284;47.042;15.498;2023-02-12T04:07:50;98706.59;;;-2.21;75.83
57442;BME280;43284;47.042;15.498;2023-02-12T04:10:17;98700.69;;;-2.20;75.48
57442;BME280;43284;47.042;15.498;2023-02-12T04:12:53;98703.13;;;-2.23;75.48
57442;BME280;43284;47.042;15.498;2023-02-12T04:15:50;98701.31;;;-2.29;75.88
57442;BME280;43284;47.042;15.498;2023-02-12T04:18:45;98715.66;;;-2.34;77.16
57442;BME280;43284;47.042;15.498;2023-02-12T04:24:26;98707.66;;;-2.46;78.46
57442;BME280;43284;47.042;15.498;2023-02-12T04:32:20;98703.13;;;-2.55;78.48
57442;BME280;43284;47.042;15.498;2023-02-12T04:37:18;98719.19;;;-2.61;78.42
57442;BME280;43284;47.042;15.498;2023-02-12T04:39:46;98716.66;;;-2.59;78.22
57442;BME280;43284;47.042;15.498;2023-02-12T04:42:13;98721.84;;;-2.58;77.90
57442;BME280;43284;47.042;15.498;2023-02-12T04:44:41;98733.00;;;-2.54;78.28
57442;BME280;43284;47.042;15.498;2023-02-12T04:47:10;98723.69;;;-2.52;78.15
57442;BME280;43284;47.042;15.498;2023-02-12T04:49:36;98720.34;;;-2.50;78.22
57442;BME280;43284;47.042;15.498;2023-02-12T04:52:02;98729.03;;;-2.44;78.02
57442;BME280;43284;47.042;15.498;2023-02-12T04:54:28;98735.03;;;-2.44;77.65
57442;BME280;43284;47.042;15.498;2023-02-12T04:56:53;98731.63;;;-2.43;77.42
57442;BME280;43284;47.042;15.498;2023-02-12T04:59:19;98733.44;;;-2.39;77.37
57442;BME280;43284;47.042;15.498;2023-02-12T05:01:45;98745.41;;;-2.39;77.44
57442;BME280;43284;47.042;15.498;2023-02-12T05:04:12;98743.66;;;-2.40;77.80
57442;BME280;43284;47.042;15.498;2023-02-12T05:06:40;98745.09;;;-2.50;78.91
57442;BME280;43284;47.042;15.498;2023-02-12T05:09:07;98743.50;;;-2.45;79.16
57442;BME280;43284;47.042;15.498;2023-02-12T05:11:33;98744.41;;;-2.44;78.94
57442;BME280;43284;47.042;15.498;2023-02-12T05:13:59;98748.69;;;-2.43;79.11
57442;BME280;43284;47.042;15.498;2023-02-12T05:16:24;98758.06;;;-2.44;78.77
57442;BME280;43284;47.042;15.498;2023-02-12T05:18:50;98754.72;;;-2.41;78.75
57442;BME280;43284;47.042;15.498;2023-02-12T05:21:16;98759.03;;;-2.40;78.69
57442;BME280;43284;47.042;15.498;2023-02-12T05:23:42;98766.84;;;-2.36;78.69
57442;BME280;43284;47.042;15.498;2023-02-12T05:26:15;98768.66;;;-2.32;78.38
57442;BME280;43284;47.042;15.498;2023-02-12T05:28:41;98773.69;;;-2.35;78.52
57442;BME280;43284;47.042;15.498;2023-02-12T05:31:13;98772.88;;;-2.34;78.53
57442;BME280;43284;47.042;15.498;2023-02-12T05:33:45;98768.63;;;-2.33;78.51
57442;BME280;43284;47.042;15.498;2023-02-12T05:36:14;98776.34;;;-2.32;78.32
57442;BME280;43284;47.042;15.498;2023-02-12T05:38:41;98779.16;;;-2.22;78.00
57442;BME280;43284;47.042;15.498;2023-02-12T05:41:10;98791.06;;;-2.24;78.01
57442;BME280;43284;47.042;15.498;2023-02-12T05:43:36;98797.09;;;-2.22;78.33
57442;BME280;43284;47.042;15.498;2023-02-12T05:46:03;98790.31;;;-2.20;78.23
57442;BME280;43284;47.042;15.498;2023-02-12T05:48:30;98799.06;;;-2.12;78.30
57442;BME280;43284;47.042;15.498;2023-02-12T05:51:11;98817.84;;;-2.13;78.67
57442;BME280;43284;47.042;15.498;2023-02-12T05:53:37;98822.22;;;-2.09;79.09
57442;BME280;43284;47.042;15.498;2023-02-12T05:56:13;98812.00;;;-2.09;78.99
57442;BME280;43284;47.042;15.498;2023-02-12T05:58:40;98812.13;;;-2.04;78.61
57442;BME280;43284;47.042;15.498;2023-02-12T06:01:21;98814.00;;;-1.99;78.11
57442;BME280;43284;47.042;15.498;2023-02-12T06:03:48;98822.66;;;-1.94;78.17
57442;BME280;43284;47.042;15.498;2023-02-12T06:06:14;98825.28;;;-1.92;77.60
57442;BME280;43284;47.042;15.498;2023-02-12T06:08:40;98834.81;;;-1.87;77.45
57442;BME280;43284;47.042;15.498;2023-02-12T06:11:09;98834.06;;;-1.82;78.68
57442;BME280;43284;47.042;15.498;2023-02-12T06:13:35;98829.06;;;-1.78;78.34
57442;BME280;43284;47.042;15.498;2023-02-12T06:16:00;98830.97;;;-1.71;78.01
57442;BME280;43284;47.042;15.498;2023-02-12T06:18:26;98840.34;;;-1.71;77.69
57442;BME280;43284;47.042;15.498;2023-02-12T06:20:52;98844.56;;;-1.73;77.70
57442;BME280;43284;47.042;15.498;2023-02-12T06:23:22;98848.06;;;-1.71;77.62
57442;BME280;43284;47.042;15.498;2023-02-12T06:25:49;98862.63;;;-1.69;77.78
57442;BME280;43284;47.042;15.498;2023-02-12T06:28:15;98873.84;;;-1.65;78.19
57442;BME280;43284;47.042;15.498;2023-02-12T06:30:41;98879.94;;;-1.61;78.00
57442;BME280;43284;47.042;15.498;2023-02-12T06:33:07;98874.34;;;-1.47;77.37
57442;BME280;43284;47.042;15.498;2023-02-12T06:35:36;98876.91;;;-1.47;77.12
57442;BME280;43284;47.042;15.498;2023-02-12T06:38:02;98877.75;;;-1.48;77.10
57442;BME280;43284;47.042;15.498;2023-02-12T06:40:28;98877.81;;;-1.46;76.92
57442;BME280;43284;47.042;15.498;2023-02-12T06:42:53;98878.78;;;-1.41;77.27
57442;BME280;43284;47.042;15.498;2023-02-12T06:45:19;98878.09;;;-1.35;77.22
57442;BME280;43284;47.042;15.498;2023-02-12T06:47:44;98882.66;;;-1.23;77.37
57442;BME280;43284;47.042;15.498;2023-02-12T06:50:10;98879.47;;;-1.15;77.76
57442;BME280;43284;47.042;15.498;2023-02-12T06:52:36;98879.63;;;-1.09;76.92
57442;BME280;43284;47.042;15.498;2023-02-12T06:55:02;98890.69;;;-1.11;76.71
57442;BME280;43284;47.042;15.498;2023-02-12T06:57:29;98896.75;;;-1.08;76.61
57442;BME280;43284;47.042;15.498;2023-02-12T06:59:55;98903.97;;;-0.93;74.76
57442;BME280;43284;47.042;15.498;2023-02-12T07:02:21;98901.34;;;-0.94;75.10
57442;BME280;43284;47.042;15.498;2023-02-12T07:04:46;98907.38;;;-0.94;75.22
57442;BME280;43284;47.042;15.498;2023-02-12T07:07:12;98909.16;;;-0.91;75.70
57442;BME280;43284;47.042;15.498;2023-02-12T07:09:37;98916.91;;;-0.88;76.15
57442;BME280;43284;47.042;15.498;2023-02-12T07:12:03;98911.84;;;-0.87;76.05
57442;BME280;43284;47.042;15.498;2023-02-12T07:14:29;98916.16;;;-0.84;75.35
57442;BME280;43284;47.042;15.498;2023-02-12T07:16:55;98912.00;;;-0.79;75.41
57442;BME280;43284;47.042;15.498;2023-02-12T07:19:21;98903.59;;;-0.73;75.38
57442;BME280;43284;47.042;15.498;2023-02-12T07:21:47;98902.06;;;-0.67;75.05
57442;BME280;43284;47.042;15.498;2023-02-12T07:24:13;98906.50;;;-0.59;75.11
57442;BME280;43284;47.042;15.498;2023-02-12T07:26:40;98916.13;;;-0.51;75.26
57442;BME280;43284;47.042;15.498;2023-02-12T07:29:06;98911.13;;;-0.45;75.63
57442;BME280;43284;47.042;15.498;2023-02-12T07:31:32;98913.03;;;-0.36;75.61
57442;BME280;43284;47.042;15.498;2023-02-12T07:33:59;98924.28;;;-0.31;75.10
57442;BME280;43284;47.042;15.498;2023-02-12T07:36:28;98921.81;;;-0.28;74.66
57442;BME280;43284;47.042;15.498;2023-02-12T07:38:55;98923.56;;;-0.25;74.62
57442;BME280;43284;47.042;15.498;2023-02-12T07:41:33;98915.91;;;-0.24;73.76
57442;BME280;43284;47.042;15.498;2023-02-12T07:44:01;98919.44;;;-0.18;73.88
57442;BME280;43284;47.042;15.498;2023-02-12T07:46:37;98922.88;;;-0.18;72.75
57442;BME280;43284;47.042;15.498;2023-02-12T07:49:04;98923.75;;;-0.17;72.36
57442;BME280;43284;47.042;15.498;2023-02-12T07:51:32;98925.44;;;-0.18;72.01
57442;BME280;43284;47.042;15.498;2023-02-12T07:53:58;98919.50;;;-0.15;72.26
57442;BME280;43284;47.042;15.498;2023-02-12T07:56:27;98922.19;;;-0.11;72.34
57442;BME280;43284;47.042;15.498;2023-02-12T07:58:58;98920.72;;;0.01;72.85
57442;BME280;43284;47.042;15.498;2023-02-12T08:01:27;98920.06;;;0.09;73.33
57442;BME280;43284;47.042;15.498;2023-02-12T08:03:57;98925.28;;;0.14;73.36
57442;BME280;43284;47.042;15.498;2023-02-12T08:06:25;98924.47;;;0.16;73.34
57442;BME280;43284;47.042;15.498;2023-02-12T08:08:52;98929.81;;;0.26;74.25
57442;BME280;43284;47.042;15.498;2023-02-12T08:11:18;98930.91;;;0.37;75.04
57442;BME280;43284;47.042;15.498;2023-02-12T08:13:44;98938.38;;;0.67;74.78
57442;BME280;43284;47.042;15.498;2023-02-12T08:16:15;98935.09;;;0.76;71.05
57442;BME280;43284;47.042;15.498;2023-02-12T08:18:42;98931.72;;;0.77;70.68
57442;BME280;43284;47.042;15.498;2023-02-12T08:21:19;98935.16;;;0.77;70.26
57442;BME280;43284;47.042;15.498;2023-02-12T08:23:45;98932.63;;;0.80;69.30
57442;BME280;43284;47.042;15.498;2023-02-12T08:26:40;98934.41;;;0.85;69.80
57442;BME280;43284;47.042;15.498;2023-02-12T08:29:11;98927.63;;;0.88;69.59
57442;BME280;43284;47.042;15.498;2023-02-12T08:31:43;98923.41;;;0.93;69.12
57442;BME280;43284;47.042;15.498;2023-02-12T08:36:42;98911.91;;;1.21;67.45
57442;BME280;43284;47.042;15.498;2023-02-12T08:39:09;98918.03;;;1.28;67.83
57442;BME280;43284;47.042;15.498;2023-02-12T08:41:35;98914.69;;;1.35;66.82
57442;BME280;43284;47.042;15.498;2023-02-12T08:44:03;98915.84;;;1.51;65.54
57442;BME280;43284;47.042;15.498;2023-02-12T08:46:31;98922.63;;;1.48;65.80
57442;BME280;43284;47.042;15.498;2023-02-12T08:49:00;98927.91;;;1.54;65.09
57442;BME280;43284;47.042;15.498;2023-02-12T08:51:29;98934.44;;;1.88;65.51
57442;BME280;43284;47.042;15.498;2023-02-12T08:53:58;98933.22;;;2.24;65.06
57442;BME280;43284;47.042;15.498;2023-02-12T08:56:25;98930.53;;;2.18;64.02
57442;BME280;43284;47.042;15.498;2023-02-12T08:58:51;98941.44;;;2.64;64.91
57442;BME280;43284;47.042;15.498;2023-02-12T09:01:22;98931.50;;;2.98;64.17
57442;BME280;43284;47.042;15.498;2023-02-12T09:03:49;98940.22;;;3.09;62.94
57442;BME280;43284;47.042;15.498;2023-02-12T09:06:16;98941.03;;;3.05;64.03
57442;BME280;43284;47.042;15.498;2023-02-12T09:08:42;98931.97;;;3.51;61.32
57442;BME280;43284;47.042;15.498;2023-02-12T09:11:11;98931.94;;;3.44;62.50
57442;BME280;43284;47.042;15.498;2023-02-12T09:13:38;98932.72;;;3.37;61.90
57442;BME280;43284;47.042;15.498;2023-02-12T09:16:05;98938.88;;;3.48;61.18
57442;BME280;43284;47.042;15.498;2023-02-12T09:18:32;98942.41;;;3.59;61.47
57442;BME280;43284;47.042;15.498;2023-02-12T09:21:09;98952.75;;;3.59;60.09
57442;BME280;43284;47.042;15.498;2023-02-12T09:23:36;98950.97;;;3.55;60.56
57442;BME280;43284;47.042;15.498;2023-02-12T09:26:04;98957.00;;;3.54;60.78
57442;BME280;43284;47.042;15.498;2023-02-12T09:28:30;98962.16;;;3.53;61.67
57442;BME280;43284;47.042;15.498;2023-02-12T09:30:56;98963.13;;;3.67;61.50
57442;BME280;43284;47.042;15.498;2023-02-12T09:33:22;98963.19;;;3.70;59.57
57442;BME280;43284;47.042;15.498;2023-02-12T09:35:47;98967.72;;;4.06;61.20
57442;BME280;43284;47.042;15.498;2023-02-12T09:38:13;98966.19;;;4.39;57.56
57442;BME280;43284;47.042;15.498;2023-02-12T09:47:00;98958.53;;;4.61;52.77
57442;BME280;43284;47.042;15.498;2023-02-12T09:49:55;98958.72;;;5.18;51.03
57442;BME280;43284;47.042;15.498;2023-02-12T09:52:28;98955.31;;;5.55;49.86
57442;BME280;43284;47.042;15.498;2023-02-12T09:54:55;98961.38;;;6.01;48.91
57442;BME280;43284;47.042;15.498;2023-02-12T09:57:24;98951.84;;;6.13;48.73
57442;BME280;43284;47.042;15.498;2023-02-12T09:59:58;98970.00;;;6.29;48.14
57442;BME280;43284;47.042;15.498;2023-02-12T10:02:26;98969.00;;;6.67;46.98
57442;BME280;43284;47.042;15.498;2023-02-12T10:04:53;98963.03;;;6.48;47.54
57442;BME280;43284;47.042;15.498;2023-02-12T10:16:15;98957.63;;;7.00;44.60
57442;BME280;43284;47.042;15.498;2023-02-12T10:21:46;98953.91;;;7.38;44.58
57442;BME280;43284;47.042;15.498;2023-02-12T10:26:45;98953.53;;;7.87;43.07
57442;BME280;43284;47.042;15.498;2023-02-12T10:29:17;98950.22;;;7.68;43.55
57442;BME280;43284;47.042;15.498;2023-02-12T10:31:47;98948.09;;;8.09;44.09
57442;BME280;43284;47.042;15.498;2023-02-12T10:34:19;98955.09;;;8.05;44.67
57442;BME280;43284;47.042;15.498;2023-02-12T10:36:50;98955.13;;;8.02;44.14
57442;BME280;43284;47.042;15.498;2023-02-12T10:39:25;98960.34;;;8.00;45.42
57442;BME280;43284;47.042;15.498;2023-02-12T10:42:41;98959.69;;;7.75;45.31
57442;BME280;43284;47.042;15.498;2023-02-12T10:44:41;98964.44;;;7.15;46.01
57442;BME280;43284;47.042;15.498;2023-02-12T10:47:19;98967.91;;;7.20;46.31
57442;BME280;43284;47.042;15.498;2023-02-12T10:49:50;98965.34;;;7.08;46.64
57442;BME280;43284;47.042;15.498;2023-02-12T10:52:38;98960.16;;;7.06;45.91
57442;BME280;43284;47.042;15.498;2023-02-12T10:55:32;98948.94;;;6.96;44.98
57442;BME280;43284;47.042;15.498;2023-02-12T10:58:00;98952.31;;;7.12;45.54
57442;BME280;43284;47.042;15.498;2023-02-12T11:05:36;98941.75;;;7.38;45.16
57442;BME280;43284;47.042;15.498;2023-02-12T11:08:03;98940.00;;;7.43;44.80
57442;BME280;43284;47.042;15.498;2023-02-12T11:10:38;98939.00;;;7.61;45.95
57442;BME280;43284;47.042;15.498;2023-02-12T11:13:05;98934.41;;;7.90;46.64
57442;BME280;43284;47.042;15.498;2023-02-12T11:15:47;98928.09;;;8.14;46.34
57442;BME280;43284;47.042;15.498;2023-02-12T11:18:27;98937.81;;;7.95;47.10
57442;BME280;43284;47.042;15.498;2023-02-12T11:23:27;98928.03;;;8.20;46.79
57442;BME280;43284;47.042;15.498;2023-02-12T11:26:03;98927.31;;;8.07;48.09
57442;BME280;43284;47.042;15.498;2023-02-12T11:28:30;98927.03;;;8.33;50.02
57442;BME280;43284;47.042;15.498;2023-02-12T11:33:35;98927.69;;;8.55;47.87
57442;BME280;43284;47.042;15.498;2023-02-12T11:36:14;98920.53;;;8.71;46.85
57442;BME280;43284;47.042;15.498;2023-02-12T11:38:50;98916.56;;;9.06;46.97
57442;BME280;43284;47.042;15.498;2023-02-12T11:43:55;98916.13;;;9.37;46.85
57442;BME280;43284;47.042;15.498;2023-02-12T11:46:23;98913.25;;;9.54;44.97
57442;BME280;43284;47.042;15.498;2023-02-12T11:48:51;98913.44;;;9.40;45.87
57442;BME280;43284;47.042;15.498;2023-02-12T11:51:25;98913.75;;;9.76;45.33
57442;BME280;43284;47.042;15.498;2023-02-12T11:53:55;98906.88;;;9.68;46.24
57442;BME280;43284;47.042;15.498;2023-02-12T11:56:22;98911.16;;;9.74;45.27
57442;BME280;43284;47.042;15.498;2023-02-12T11:58:49;98903.75;;;9.48;46.14
57442;BME280;43284;47.042;15.498;2023-02-12T12:01:20;98894.94;;;9.55;45.36
57442;BME280;43284;47.042;15.498;2023-02-12T12:04:08;98891.19;;;9.72;45.83
57442;BME280;43284;47.042;15.498;2023-02-12T12:06:45;98897.28;;;9.72;45.79
57442;BME280;43284;47.042;15.498;2023-02-12T12:09:33;98891.88;;;9.81;46.10
57442;BME280;43284;47.042;15.498;2023-02-12T12:12:24;98891.00;;;9.84;45.20
57442;BME280;43284;47.042;15.498;2023-02-12T12:15:06;98892.75;;;9.82;45.43
57442;BME280;43284;47.042;15.498;2023-02-12T12:18:01;98883.34;;;9.73;45.29
57442;BME280;43284;47.042;15.498;2023-02-12T12:20:51;98886.97;;;9.64;45.53
57442;BME280;43284;47.042;15.498;2023-02-12T12:23:24;98878.06;;;9.75;45.80
57442;BME280;43284;47.042;15.498;2023-02-12T12:26:34;98876.13;;;9.86;46.44
57442;BME280;43284;47.042;15.498;2023-02-12T12:29:21;98877.59;;;10.01;46.03
57442;BME280;43284;47.042;15.498;2023-02-12T12:31:55;98870.75;;;10.40;45.93
57442;BME280;43284;47.042;15.498;2023-02-12T12:34:26;98859.81;;;10.65;45.06
57442;BME280;43284;47.042;15.498;2023-02-12T12:48:42;98840.72;;;11.00;42.79
57442;BME280;43284;47.042;15.498;2023-02-12T12:59:37;98851.72;;;10.34;43.70
57442;BME280;43284;47.042;15.498;2023-02-12T13:07:41;98843.75;;;10.41;43.70
57442;BME280;43284;47.042;15.498;2023-02-12T13:10:26;98836.84;;;10.37;44.43
57442;BME280;43284;47.042;15.498;2023-02-12T13:15:39;98845.84;;;10.21;44.12
57442;BME280;43284;47.042;15.498;2023-02-12T13:18:19;98846.22;;;10.02;44.25
57442;BME280;43284;47.042;15.498;2023-02-12T13:23:58;98845.66;;;9.86;44.98
57442;BME280;43284;47.042;15.498;2023-02-12T13:26:35;98837.91;;;10.27;44.37
57442;BME280;43284;47.042;15.498;2023-02-12T13:29:37;98832.53;;;10.75;43.69
57442;BME280;43284;47.042;15.498;2023-02-12T13:32:10;98829.34;;;11.00;42.93
57442;BME280;43284;47.042;15.498;2023-02-12T13:34:40;98826.50;;;11.10;42.52
57442;BME280;43284;47.042;15.498;2023-02-12T13:37:31;98830.25;;;11.34;40.92
57442;BME280;43284;47.042;15.498;2023-02-12T13:40:03;98826.78;;;11.70;39.87
57442;BME280;43284;47.042;15.498;2023-02-12T13:48:22;98822.41;;;11.69;40.21
57442;BME280;43284;47.042;15.498;2023-02-12T13:56:04;98839.75;;;11.40;41.17
57442;BME280;43284;47.042;15.498;2023-02-12T14:03:34;98844.19;;;11.37;42.26
57442;BME280;43284;47.042;15.498;2023-02-12T14:08:51;98833.19;;;11.57;42.14
57442;BME280;43284;47.042;15.498;2023-02-12T14:11:23;98838.06;;;11.72;42.40
57442;BME280;43284;47.042;15.498;2023-02-12T14:13:59;98836.25;;;11.74;40.86
57442;BME280;43284;47.042;15.498;2023-02-12T14:21:58;98828.81;;;11.91;39.94
57442;BME280;43284;47.042;15.498;2023-02-12T14:27:18;98837.59;;;11.90;39.29
57442;BME280;43284;47.042;15.498;2023-02-12T14:30:33;98832.97;;;12.00;38.71
57442;BME280;43284;47.042;15.498;2023-02-12T14:35:39;98840.28;;;11.87;39.36
57442;BME280;43284;47.042;15.498;2023-02-12T14:43:30;98844.25;;;11.35;40.63
57442;BME280;43284;47.042;15.498;2023-02-12T14:49:02;98850.25;;;11.01;41.08
57442;BME280;43284;47.042;15.498;2023-02-12T14:51:45;98855.38;;;11.07;40.81
57442;BME280;43284;47.042;15.498;2023-02-12T14:54:39;98854.81;;;10.93;41.16
57442;BME280;43284;47.042;15.498;2023-02-12T14:59:48;98848.13;;;10.80;41.62
57442;BME280;43284;47.042;15.498;2023-02-12T15:02:26;98862.28;;;10.71;41.26
57442;BME280;43284;47.042;15.498;2023-02-12T15:04:57;98858.88;;;10.67;40.44
57442;BME280;43284;47.042;15.498;2023-02-12T15:07:42;98856.53;;;10.55;41.19
57442;BME280;43284;47.042;15.498;2023-02-12T15:10:18;98855.81;;;10.47;41.14
57442;BME280;43284;47.042;15.498;2023-02-12T15:12:47;98857.00;;;10.32;41.56
57442;BME280;43284;47.042;15.498;2023-02-12T15:15:27;98856.09;;;10.33;41.50
57442;BME280;43284;47.042;15.498;2023-02-12T15:21:05;98866.19;;;10.06;42.87
57442;BME280;43284;47.042;15.498;2023-02-12T15:23:44;98868.91;;;10.00;43.19
57442;BME280;43284;47.042;15.498;2023-02-12T15:26:16;98869.09;;;9.89;43.95
57442;BME280;43284;47.042;15.498;2023-02-12T15:28:46;98864.91;;;9.81;44.11
57442;BME280;43284;47.042;15.498;2023-02-12T15:31:16;98868.56;;;9.70;44.23
57442;BME280;43284;47.042;15.498;2023-02-12T15:33:48;98865.13;;;9.68;43.78
57442;BME280;43284;47.042;15.498;2023-02-12T15:36:20;98873.06;;;9.62;43.82
57442;BME280;43284;47.042;15.498;2023-02-12T15:38:54;98870.59;;;9.53;44.51